createdAt,value
2023-01-17T00:00:08.383Z,971.2
2023-01-17T00:01:08.278Z,971.3
2023-01-17T00:02:08.302Z,971.2
2023-01-17T00:03:08.321Z,971.2
2023-01-17T00:04:08.502Z,971.1
2023-01-17T00:05:08.351Z,971.1
2023-01-17T00:06:08.347Z,971.1
2023-01-17T00:07:08.365Z,971.2
2023-01-17T00:08:08.375Z,971.0
2023-01-17T00:09:08.409Z,971.1
2023-01-17T00:10:08.395Z,971.0
2023-01-17T00:11:08.420Z,971.1
2023-01-17T00:12:08.415Z,971.1
2023-01-17T00:13:08.444Z,971.2
2023-01-17T00:14:08.451Z,971.1
2023-01-17T00:15:08.482Z,971.1
2023-01-17T00:16:08.591Z,971.1
2023-01-17T00:17:08.477Z,971.0
2023-01-17T00:18:08.487Z,971.0
2023-01-17T00:19:08.585Z,971.0
2023-01-17T00:20:08.521Z,971.0
2023-01-17T00:21:08.541Z,971.1
2023-01-17T00:22:08.550Z,971.0
2023-01-17T00:23:08.570Z,970.9
2023-01-17T00:24:08.582Z,971.0
2023-01-17T00:25:08.591Z,971.0
2023-01-17T00:26:08.611Z,971.0
2023-01-17T00:27:08.621Z,970.9
2023-01-17T00:28:08.626Z,971.0
2023-01-17T00:29:08.646Z,971.0
2023-01-17T00:30:08.664Z,970.9
2023-01-17T00:31:08.757Z,971.0
2023-01-17T00:32:08.684Z,970.9
2023-01-17T00:33:08.693Z,970.9
2023-01-17T00:34:08.690Z,970.9
2023-01-17T00:35:08.713Z,971.0
2023-01-17T00:36:08.761Z,970.9
2023-01-17T00:37:08.749Z,971.0
2023-01-17T00:38:08.765Z,970.9
2023-01-17T00:39:08.777Z,971.0
2023-01-17T00:40:08.784Z,970.9
2023-01-17T00:41:08.813Z,970.9
2023-01-17T00:42:08.817Z,971.0
2023-01-17T00:43:08.841Z,970.9
2023-01-17T00:44:08.850Z,970.8
2023-01-17T00:45:08.864Z,970.9
2023-01-17T00:46:08.867Z,970.9
2023-01-17T00:47:08.894Z,970.9
2023-01-17T00:48:08.919Z,970.9
2023-01-17T00:49:08.927Z,970.9
2023-01-17T00:50:08.927Z,970.9
2023-01-17T00:51:08.931Z,971.0
2023-01-17T00:52:08.992Z,970.9
2023-01-17T00:53:08.967Z,971.0
2023-01-17T00:54:08.983Z,970.9
2023-01-17T00:55:09.015Z,971.0
2023-01-17T00:56:09.006Z,970.9
2023-01-17T00:57:09.029Z,970.9
2023-01-17T00:58:09.044Z,970.9
2023-01-17T00:59:09.058Z,970.9
2023-01-17T01:00:09.087Z,970.9
2023-01-17T01:01:09.338Z,970.9
2023-01-17T01:02:09.313Z,970.9
2023-01-17T01:03:09.133Z,970.9
2023-01-17T01:04:09.135Z,970.9
2023-01-17T01:05:09.152Z,970.9
2023-01-17T01:06:09.168Z,970.9
2023-01-17T01:07:09.190Z,970.9
2023-01-17T01:08:09.228Z,970.9
2023-01-17T01:09:09.227Z,970.9
2023-01-17T01:10:09.240Z,970.9
2023-01-17T01:11:09.253Z,970.9
2023-01-17T01:12:09.261Z,970.8
2023-01-17T01:13:09.284Z,970.9
2023-01-17T01:14:09.312Z,970.8
2023-01-17T01:15:09.319Z,970.8
2023-01-17T01:16:09.371Z,970.9
2023-01-17T01:17:09.358Z,970.9
2023-01-17T01:18:09.356Z,970.8
2023-01-17T01:19:09.374Z,970.9
2023-01-17T01:20:09.380Z,970.9
2023-01-17T01:21:09.396Z,970.9
2023-01-17T01:22:09.417Z,970.9
2023-01-17T01:23:09.409Z,970.9
2023-01-17T01:24:09.450Z,970.9
2023-01-17T01:25:09.442Z,970.9
2023-01-17T01:26:09.445Z,970.9
2023-01-17T01:27:09.447Z,970.9
2023-01-17T01:28:09.494Z,970.9
2023-01-17T01:29:09.472Z,970.8
2023-01-17T01:30:09.475Z,970.9
2023-01-17T01:31:09.660Z,970.9
2023-01-17T01:32:09.493Z,970.9
2023-01-17T01:33:09.496Z,970.9
2023-01-17T01:34:09.489Z,971.0
2023-01-17T01:52:09.950Z,970.8
2023-01-17T01:53:09.615Z,970.7
2023-01-17T01:54:09.626Z,970.7
2023-01-17T01:55:09.645Z,970.7
2023-01-17T01:56:09.646Z,970.6
2023-01-17T01:57:09.641Z,970.6
2023-01-17T01:58:09.665Z,970.6
2023-01-17T01:59:09.645Z,970.7
2023-01-17T02:00:09.666Z,970.6
2023-01-17T02:01:09.957Z,970.6
2023-01-17T02:02:09.657Z,970.6
2023-01-17T02:03:09.673Z,970.6
2023-01-17T02:04:10.217Z,970.6
2023-01-17T02:05:09.677Z,970.6
2023-01-17T02:06:09.683Z,970.7
2023-01-17T02:07:09.694Z,970.6
2023-01-17T02:08:09.707Z,970.7
2023-01-17T02:09:09.711Z,970.7
2023-01-17T02:10:09.755Z,970.6
2023-01-17T02:11:09.721Z,970.6
2023-01-17T02:12:09.738Z,970.6
2023-01-17T02:13:09.739Z,970.7
2023-01-17T02:14:09.747Z,970.7
2023-01-17T02:15:09.764Z,970.7
2023-01-17T02:16:09.920Z,970.7
2023-01-17T02:17:09.787Z,970.7
2023-01-17T02:18:09.771Z,970.7
2023-01-17T02:19:09.778Z,970.6
2023-01-17T02:20:09.785Z,970.7
2023-01-17T02:21:09.797Z,970.6
2023-01-17T02:22:09.802Z,970.6
2023-01-17T02:23:09.798Z,970.7
2023-01-17T02:24:09.811Z,970.7
2023-01-17T02:25:09.818Z,970.7
2023-01-17T02:26:09.816Z,970.6
2023-01-17T02:27:09.829Z,970.6
2023-01-17T02:28:09.832Z,970.6
2023-01-17T02:29:09.869Z,970.6
2023-01-17T02:30:09.862Z,970.6
2023-01-17T02:31:09.857Z,970.6
2023-01-17T02:32:09.862Z,970.7
2023-01-17T02:33:09.882Z,970.7
2023-01-17T02:34:09.886Z,970.7
2023-01-17T02:35:09.894Z,970.6
2023-01-17T02:36:09.895Z,970.7
2023-01-17T02:37:09.907Z,970.6
2023-01-17T02:38:09.907Z,970.6
2023-01-17T02:39:09.937Z,970.6
2023-01-17T02:40:09.918Z,970.6
2023-01-17T02:41:09.928Z,970.6
2023-01-17T02:42:09.933Z,970.7
2023-01-17T02:43:09.936Z,970.6
2023-01-17T02:44:09.953Z,970.6
2023-01-17T02:45:09.957Z,970.6
2023-01-17T02:46:10.209Z,970.7
2023-01-17T02:47:09.960Z,970.6
2023-01-17T02:48:09.971Z,970.7
2023-01-17T02:49:09.975Z,970.6
2023-01-17T02:50:09.980Z,970.7
2023-01-17T02:51:10.032Z,970.6
2023-01-17T02:52:09.997Z,970.5
2023-01-17T02:53:10.005Z,970.6
2023-01-17T02:54:10.005Z,970.6
2023-01-17T02:55:10.016Z,970.6
2023-01-17T02:56:10.048Z,970.5
2023-01-17T02:57:10.041Z,970.5
2023-01-17T02:58:10.045Z,970.5
2023-01-17T02:59:10.045Z,970.6
2023-01-17T03:00:10.045Z,970.5
2023-01-17T03:01:10.348Z,970.6
2023-01-17T03:02:10.465Z,970.5
2023-01-17T03:03:10.070Z,970.6
2023-01-17T03:04:10.121Z,970.5
2023-01-17T03:05:10.161Z,970.6
2023-01-17T03:06:10.111Z,970.6
2023-01-17T03:07:10.116Z,970.6
2023-01-17T03:08:10.120Z,970.7
2023-01-17T03:09:10.265Z,970.6
2023-01-17T03:10:10.276Z,970.6
2023-01-17T03:11:10.214Z,970.6
2023-01-17T03:12:10.147Z,970.6
2023-01-17T03:13:10.155Z,970.6
2023-01-17T03:14:10.155Z,970.5
2023-01-17T03:15:10.159Z,970.6
2023-01-17T03:16:12.929Z,970.6
2023-01-17T03:17:10.188Z,970.6
2023-01-17T03:18:10.179Z,970.5
2023-01-17T03:19:10.234Z,970.5
2023-01-17T03:20:10.199Z,970.5
2023-01-17T03:21:10.212Z,970.5
2023-01-17T03:22:10.206Z,970.5
2023-01-17T03:23:10.223Z,970.5
2023-01-17T03:24:10.248Z,970.5
2023-01-17T03:25:10.337Z,970.6
2023-01-17T03:26:10.257Z,970.5
2023-01-17T03:27:10.245Z,970.7
2023-01-17T03:28:10.258Z,970.6
2023-01-17T03:29:10.251Z,970.6
2023-01-17T03:30:10.277Z,970.7
2023-01-17T03:31:10.271Z,970.6
2023-01-17T03:32:10.271Z,970.6
2023-01-17T03:33:10.301Z,970.6
2023-01-17T03:34:10.292Z,970.7
2023-01-17T03:35:10.372Z,970.7
2023-01-17T03:36:10.303Z,970.6
2023-01-17T03:37:10.304Z,970.7
2023-01-17T03:38:10.308Z,970.7
2023-01-17T03:39:10.312Z,970.6
2023-01-17T03:40:10.318Z,970.6
2023-01-17T03:41:10.339Z,970.6
2023-01-17T03:42:10.340Z,970.6
2023-01-17T03:43:10.338Z,970.6
2023-01-17T03:44:10.346Z,970.5
2023-01-17T03:45:10.362Z,970.5
2023-01-17T03:46:10.458Z,970.6
2023-01-17T03:47:10.364Z,970.6
2023-01-17T03:48:10.385Z,970.6
2023-01-17T03:49:10.382Z,970.7
2023-01-17T03:50:10.390Z,970.6
2023-01-17T03:51:10.379Z,970.6
2023-01-17T03:52:10.392Z,970.7
2023-01-17T03:53:10.399Z,970.8
2023-01-17T03:54:10.411Z,970.7
2023-01-17T03:55:10.413Z,970.7
2023-01-17T03:56:10.417Z,970.7
2023-01-17T03:57:10.430Z,970.7
2023-01-17T03:58:10.434Z,970.7
2023-01-17T03:59:13.422Z,970.7
2023-01-17T04:00:10.452Z,970.6
2023-01-17T04:01:10.828Z,970.7
2023-01-17T04:02:10.719Z,970.6
2023-01-17T04:03:10.460Z,970.7
2023-01-17T04:04:10.476Z,970.7
2023-01-17T04:05:10.496Z,970.5
2023-01-17T04:06:10.481Z,970.6
2023-01-17T04:07:10.481Z,970.6
2023-01-17T04:08:10.480Z,970.5
2023-01-17T04:09:10.497Z,970.6
2023-01-17T04:10:10.519Z,970.6
2023-01-17T04:11:10.513Z,970.6
2023-01-17T04:12:10.509Z,970.5
2023-01-17T04:13:10.520Z,970.5
2023-01-17T04:14:10.536Z,970.6
2023-01-17T04:15:10.547Z,970.5
2023-01-17T04:16:10.540Z,970.6
2023-01-17T04:17:10.551Z,970.5
2023-01-17T04:18:10.581Z,970.5
2023-01-17T04:19:10.554Z,970.5
2023-01-17T04:20:10.565Z,970.5
2023-01-17T04:21:10.576Z,970.5
2023-01-17T04:22:10.567Z,970.5
2023-01-17T04:23:10.586Z,970.5
2023-01-17T04:24:10.597Z,970.5
2023-01-17T04:25:10.592Z,970.5
2023-01-17T04:26:10.598Z,970.6
2023-01-17T04:27:10.602Z,970.5
2023-01-17T04:28:10.615Z,970.5
2023-01-17T04:29:10.628Z,970.5
2023-01-17T04:30:10.671Z,970.6
2023-01-17T04:31:10.782Z,970.7
2023-01-17T04:32:10.637Z,970.6
2023-01-17T04:33:10.665Z,970.7
2023-01-17T04:34:10.657Z,970.6
2023-01-17T04:35:10.655Z,970.7
2023-01-17T04:36:10.665Z,970.7
2023-01-17T04:37:10.693Z,970.7
2023-01-17T04:38:10.690Z,970.7
2023-01-17T04:39:10.685Z,970.7
2023-01-17T04:40:10.702Z,970.7
2023-01-17T04:41:10.703Z,970.7
2023-01-17T04:42:10.710Z,970.7
2023-01-17T04:43:10.712Z,970.8
2023-01-17T04:44:10.719Z,970.7
2023-01-17T04:45:10.728Z,970.8
2023-01-17T04:46:10.915Z,970.7
2023-01-17T04:47:10.741Z,970.8
2023-01-17T04:48:10.742Z,970.8
2023-01-17T04:49:10.751Z,970.8
2023-01-17T04:50:10.785Z,970.9
2023-01-17T04:51:10.759Z,970.8
2023-01-17T04:52:10.767Z,970.8
2023-01-17T04:53:10.788Z,970.8
2023-01-17T04:54:10.856Z,970.8
2023-01-17T04:55:10.788Z,970.7
2023-01-17T04:56:10.796Z,970.9
2023-01-17T04:57:10.813Z,970.8
2023-01-17T04:58:10.808Z,971.0
2023-01-17T04:59:10.811Z,970.9
2023-01-17T05:00:10.834Z,970.9
2023-01-17T05:01:11.053Z,971.0
2023-01-17T05:02:10.970Z,971.0
2023-01-17T05:03:10.848Z,970.9
2023-01-17T05:04:10.849Z,971.0
2023-01-17T05:05:10.854Z,971.0
2023-01-17T05:06:10.881Z,971.0
2023-01-17T05:07:10.896Z,971.0
2023-01-17T05:08:10.875Z,971.0
2023-01-17T05:09:10.877Z,971.0
2023-01-17T05:10:10.900Z,971.0
2023-01-17T05:11:10.915Z,971.0
2023-01-17T05:12:10.941Z,971.0
2023-01-17T05:13:10.912Z,971.0
2023-01-17T05:14:10.967Z,971.0
2023-01-17T05:15:10.959Z,971.0
2023-01-17T05:16:11.071Z,971.0
2023-01-17T05:17:10.982Z,971.0
2023-01-17T05:18:10.956Z,971.1
2023-01-17T05:19:10.967Z,971.1
2023-01-17T05:20:10.969Z,971.0
2023-01-17T05:21:10.954Z,971.1
2023-01-17T05:22:10.969Z,971.1
2023-01-17T05:23:10.988Z,971.1
2023-01-17T05:24:10.982Z,971.2
2023-01-17T05:25:11.015Z,971.1
2023-01-17T05:26:11.006Z,971.1
2023-01-17T05:27:11.028Z,971.2
2023-01-17T05:28:11.004Z,971.2
2023-01-17T05:29:11.014Z,971.2
2023-01-17T05:30:11.025Z,971.2
2023-01-17T05:31:11.178Z,971.2
2023-01-17T05:32:11.033Z,971.2
2023-01-17T05:33:11.049Z,971.2
2023-01-17T05:34:11.054Z,971.2
2023-01-17T05:35:11.115Z,971.2
2023-01-17T05:36:11.061Z,971.2
2023-01-17T05:37:11.058Z,971.3
2023-01-17T05:38:11.087Z,971.3
2023-01-17T05:39:11.089Z,971.3
2023-01-17T05:40:11.080Z,971.3
2023-01-17T05:41:11.090Z,971.3
2023-01-17T05:42:11.109Z,971.3
2023-01-17T05:43:11.110Z,971.3
2023-01-17T05:44:11.118Z,971.3
2023-01-17T05:45:11.123Z,971.4
2023-01-17T05:46:11.227Z,971.3
2023-01-17T05:47:11.137Z,971.4
2023-01-17T05:48:11.137Z,971.4
2023-01-17T05:49:11.157Z,971.4
2023-01-17T05:50:11.142Z,971.4
2023-01-17T05:51:11.155Z,971.4
2023-01-17T05:52:11.159Z,971.4
2023-01-17T05:53:11.178Z,971.4
2023-01-17T05:54:11.176Z,971.5
2023-01-17T05:55:11.212Z,971.4
2023-01-17T05:56:11.191Z,971.4
2023-01-17T05:57:11.199Z,971.5
2023-01-17T05:58:11.194Z,971.5
2023-01-17T05:59:14.488Z,971.4
2023-01-17T06:00:11.212Z,971.5
2023-01-17T06:01:11.361Z,971.5
2023-01-17T06:02:11.229Z,971.5
2023-01-17T06:03:11.239Z,971.5
2023-01-17T06:04:11.247Z,971.5
2023-01-17T06:05:11.244Z,971.6
2023-01-17T06:06:11.249Z,971.6
2023-01-17T06:07:11.257Z,971.7
2023-01-17T06:08:11.280Z,971.6
2023-01-17T06:09:11.268Z,971.7
2023-01-17T06:10:11.273Z,971.6
2023-01-17T06:11:11.287Z,971.6
2023-01-17T06:12:11.285Z,971.7
2023-01-17T06:13:11.314Z,971.7
2023-01-17T06:14:11.313Z,971.8
2023-01-17T06:15:11.356Z,971.7
2023-01-17T06:16:11.571Z,971.8
2023-01-17T06:17:11.332Z,971.8
2023-01-17T06:18:11.343Z,971.8
2023-01-17T06:19:11.363Z,971.8
2023-01-17T06:20:11.358Z,971.8
2023-01-17T06:21:11.376Z,971.9
2023-01-17T06:22:11.368Z,972.0
2023-01-17T06:23:11.379Z,971.8
2023-01-17T06:24:11.383Z,972.0
2023-01-17T06:25:11.387Z,972.0
2023-01-17T06:26:11.399Z,972.0
2023-01-17T06:27:11.452Z,972.1
2023-01-17T06:28:11.416Z,972.1
2023-01-17T06:29:11.454Z,972.1
2023-01-17T06:30:11.426Z,972.1
2023-01-17T06:31:11.537Z,972.2
2023-01-17T06:32:11.442Z,972.3
2023-01-17T06:33:11.455Z,972.2
2023-01-17T06:34:11.494Z,972.3
2023-01-17T06:35:11.459Z,972.3
2023-01-17T06:36:11.508Z,972.3
2023-01-17T06:37:11.521Z,972.4
2023-01-17T06:38:11.524Z,972.4
2023-01-17T06:39:15.167Z,972.4
2023-01-17T06:40:11.500Z,972.4
2023-01-17T06:41:11.511Z,972.4
2023-01-17T06:42:11.875Z,972.6
2023-01-17T06:43:11.532Z,972.5
2023-01-17T06:44:11.529Z,972.9
2023-01-17T06:45:11.544Z,972.7
2023-01-17T06:46:11.614Z,972.7
2023-01-17T06:47:11.569Z,972.7
2023-01-17T06:48:11.583Z,972.7
2023-01-17T06:49:11.607Z,972.7
2023-01-17T06:50:11.590Z,972.8
2023-01-17T06:51:11.605Z,972.7
2023-01-17T06:52:11.599Z,972.9
2023-01-17T06:53:11.610Z,972.9
2023-01-17T06:54:11.618Z,972.9
2023-01-17T06:55:11.631Z,973.0
2023-01-17T06:56:11.627Z,973.0
2023-01-17T06:57:11.634Z,973.0
2023-01-17T06:58:11.653Z,973.1
2023-01-17T06:59:11.646Z,973.1
2023-01-17T07:00:11.673Z,973.2
2023-01-17T07:01:11.951Z,973.2
2023-01-17T07:02:11.678Z,973.2
2023-01-17T07:03:11.682Z,973.2
2023-01-17T07:04:11.808Z,973.6
2023-01-17T07:05:11.708Z,973.1
2023-01-17T07:06:11.709Z,973.3
2023-01-17T07:07:12.023Z,973.3
2023-01-17T07:08:11.703Z,973.4
2023-01-17T07:09:11.740Z,973.5
2023-01-17T07:10:11.732Z,973.6
2023-01-17T07:11:11.755Z,973.5
2023-01-17T07:12:11.745Z,973.5
2023-01-17T07:13:11.759Z,973.5
2023-01-17T07:14:11.771Z,973.4
2023-01-17T07:15:11.754Z,973.5
2023-01-17T07:16:11.855Z,973.6
2023-01-17T07:17:11.771Z,973.5
2023-01-17T07:18:11.826Z,973.5
2023-01-17T07:19:11.782Z,973.5
2023-01-17T07:20:11.812Z,973.6
2023-01-17T07:21:11.797Z,973.6
2023-01-17T07:22:11.810Z,973.6
2023-01-17T07:23:11.819Z,973.7
2023-01-17T07:24:11.831Z,973.6
2023-01-17T07:25:11.824Z,973.7
2023-01-17T07:26:11.868Z,973.7
2023-01-17T07:27:11.832Z,973.7
2023-01-17T07:28:11.836Z,973.7
2023-01-17T07:29:11.843Z,973.9
2023-01-17T07:30:11.887Z,973.8
2023-01-17T07:31:11.968Z,974.0
2023-01-17T07:32:11.865Z,974.0
2023-01-17T07:33:11.867Z,973.9
2023-01-17T07:34:11.876Z,974.0
2023-01-17T07:35:11.884Z,974.0
2023-01-17T07:36:11.890Z,974.2
2023-01-17T07:37:15.499Z,974.1
2023-01-17T07:38:11.917Z,974.2
2023-01-17T07:39:11.928Z,974.2
2023-01-17T07:40:11.927Z,974.2
2023-01-17T07:41:12.032Z,974.2
2023-01-17T07:42:11.941Z,974.2
2023-01-17T07:43:11.943Z,974.2
2023-01-17T07:44:11.959Z,974.3
2023-01-17T07:45:11.964Z,974.3
2023-01-17T07:46:12.055Z,974.4
2023-01-17T07:47:11.992Z,974.2
2023-01-17T07:48:11.996Z,974.3
2023-01-17T07:49:11.988Z,974.3
2023-01-17T07:50:12.029Z,974.3
2023-01-17T07:51:12.010Z,974.3
2023-01-17T07:52:12.016Z,974.3
2023-01-17T07:53:12.016Z,974.3
2023-01-17T07:54:12.043Z,974.3
2023-01-17T07:55:12.027Z,974.4
2023-01-17T07:56:12.027Z,974.4
2023-01-17T07:57:12.051Z,974.4
2023-01-17T07:58:12.064Z,974.5
2023-01-17T07:59:12.059Z,974.5
2023-01-17T08:00:12.063Z,974.6
2023-01-17T08:01:12.302Z,974.6
2023-01-17T08:02:12.075Z,974.6
2023-01-17T08:03:12.089Z,974.7
2023-01-17T08:04:12.255Z,974.6
2023-01-17T08:05:12.101Z,974.7
2023-01-17T08:06:12.105Z,974.7
2023-01-17T08:07:12.111Z,974.8
2023-01-17T08:08:12.113Z,974.8
2023-01-17T08:09:12.128Z,974.8
2023-01-17T08:10:12.132Z,974.8
2023-01-17T08:11:12.150Z,974.9
2023-01-17T08:12:12.168Z,974.9
2023-01-17T08:13:12.163Z,975.0
2023-01-17T08:14:12.178Z,974.9
2023-01-17T08:15:12.184Z,975.0
2023-01-17T08:16:12.272Z,975.0
2023-01-17T08:17:12.195Z,975.0
2023-01-17T08:18:12.193Z,975.0
2023-01-17T08:19:12.200Z,975.0
2023-01-17T08:20:12.209Z,975.1
2023-01-17T08:21:12.215Z,975.1
2023-01-17T08:22:12.230Z,975.0
2023-01-17T08:23:12.250Z,975.3
2023-01-17T08:24:12.235Z,975.2
2023-01-17T08:25:12.303Z,975.2
2023-01-17T08:26:12.271Z,975.1
2023-01-17T08:27:12.263Z,975.2
2023-01-17T08:28:12.264Z,975.2
2023-01-17T08:29:12.275Z,975.2
2023-01-17T08:30:12.274Z,975.1
2023-01-17T08:31:12.317Z,975.3
2023-01-17T08:32:12.303Z,975.3
2023-01-17T08:33:12.307Z,975.2
2023-01-17T08:34:12.305Z,975.3
2023-01-17T08:35:12.317Z,975.3
2023-01-17T08:36:12.326Z,975.4
2023-01-17T08:37:12.338Z,975.3
2023-01-17T08:38:12.342Z,975.3
2023-01-17T08:39:12.343Z,975.4
2023-01-17T08:40:12.342Z,975.4
2023-01-17T08:41:12.357Z,975.3
2023-01-17T08:42:12.352Z,975.3
2023-01-17T08:43:12.374Z,975.4
2023-01-17T08:44:12.374Z,975.4
2023-01-17T08:45:12.390Z,975.5
2023-01-17T08:46:12.492Z,975.5
2023-01-17T08:47:12.401Z,975.6
2023-01-17T08:48:12.411Z,975.5
2023-01-17T08:49:12.448Z,975.5
2023-01-17T08:50:12.416Z,975.5
2023-01-17T08:51:12.444Z,975.6
2023-01-17T08:52:12.444Z,975.6
2023-01-17T08:53:12.454Z,975.7
2023-01-17T08:54:12.447Z,975.6
2023-01-17T08:55:12.455Z,975.7
2023-01-17T08:56:12.477Z,975.8
2023-01-17T08:57:12.489Z,975.7
2023-01-17T08:58:12.496Z,975.7
2023-01-17T08:59:12.499Z,975.7
2023-01-17T09:00:12.499Z,975.7
2023-01-17T09:01:12.685Z,975.8
2023-01-17T09:02:12.506Z,975.8
2023-01-17T09:03:13.265Z,975.8
2023-01-17T09:04:12.588Z,975.8
2023-01-17T09:05:12.536Z,975.9
2023-01-17T09:06:12.544Z,975.8
2023-01-17T09:07:12.549Z,975.8
2023-01-17T09:08:12.564Z,975.9
2023-01-17T09:09:12.558Z,975.8
2023-01-17T09:10:12.592Z,975.8
2023-01-17T09:11:12.587Z,975.9
2023-01-17T09:12:12.577Z,975.9
2023-01-17T09:13:12.606Z,975.9
2023-01-17T09:14:12.595Z,975.9
2023-01-17T09:15:12.594Z,975.9
2023-01-17T09:16:12.698Z,975.9
2023-01-17T09:17:14.691Z,976.0
2023-01-17T09:18:12.623Z,976.0
2023-01-17T09:19:12.636Z,976.0
2023-01-17T09:20:12.667Z,976.0
2023-01-17T09:21:12.651Z,976.1
2023-01-17T09:22:12.656Z,976.1
2023-01-17T09:23:12.672Z,976.1
2023-01-17T09:24:12.660Z,976.2
2023-01-17T09:25:12.744Z,976.2
2023-01-17T09:26:12.690Z,976.1
2023-01-17T09:27:12.737Z,976.1
2023-01-17T09:28:12.733Z,976.1
2023-01-17T09:29:12.756Z,976.1
2023-01-17T09:30:12.766Z,976.1
2023-01-17T09:31:12.768Z,976.2
2023-01-17T09:32:12.793Z,976.2
2023-01-17T09:33:12.726Z,976.2
2023-01-17T09:34:12.745Z,976.2
2023-01-17T09:35:12.757Z,976.3
2023-01-17T09:36:12.770Z,976.3
2023-01-17T09:37:12.763Z,976.2
2023-01-17T09:38:12.768Z,976.3
2023-01-17T09:39:12.781Z,976.2
2023-01-17T09:40:12.775Z,976.2
2023-01-17T09:41:12.786Z,976.2
2023-01-17T09:42:12.806Z,976.3
2023-01-17T09:43:12.801Z,976.3
2023-01-17T09:44:12.816Z,976.4
2023-01-17T09:45:12.828Z,976.5
2023-01-17T09:46:13.026Z,976.5
2023-01-17T09:47:12.926Z,976.4
2023-01-17T09:48:12.837Z,976.5
2023-01-17T09:49:12.853Z,976.5
2023-01-17T09:50:12.873Z,976.5
2023-01-17T09:51:12.860Z,976.5
2023-01-17T09:52:12.863Z,976.5
2023-01-17T09:53:12.879Z,976.5
2023-01-17T09:54:12.888Z,976.5
2023-01-17T09:55:12.922Z,976.6
2023-01-17T09:56:12.911Z,976.5
2023-01-17T09:57:12.917Z,976.6
2023-01-17T09:58:12.967Z,976.6
2023-01-17T09:59:18.630Z,976.5
2023-01-17T10:00:12.970Z,976.6
2023-01-17T10:01:13.425Z,976.5
2023-01-17T10:02:13.376Z,976.6
2023-01-17T10:03:13.227Z,976.6
2023-01-17T10:04:13.354Z,976.7
2023-01-17T10:05:13.010Z,976.7
2023-01-17T10:06:12.994Z,976.7
2023-01-17T10:07:12.979Z,976.7
2023-01-17T10:08:12.996Z,976.7
2023-01-17T10:09:13.007Z,976.8
2023-01-17T10:10:13.003Z,976.7
2023-01-17T10:11:13.016Z,976.7
2023-01-17T10:12:13.035Z,976.7
2023-01-17T10:13:13.071Z,976.8
2023-01-17T10:14:13.041Z,976.8
2023-01-17T10:15:13.046Z,976.7
2023-01-17T10:16:13.042Z,976.8
2023-01-17T10:17:13.057Z,976.8
2023-01-17T10:18:29.790Z,976.8
2023-01-17T10:19:13.087Z,976.8
2023-01-17T10:20:13.110Z,977.0
2023-01-17T10:21:13.105Z,976.9
2023-01-17T10:22:13.101Z,976.9
2023-01-17T10:23:13.112Z,976.9
2023-01-17T10:24:13.113Z,977.0
2023-01-17T10:25:13.191Z,977.0
2023-01-17T10:26:13.125Z,976.9
2023-01-17T10:27:13.131Z,976.8
2023-01-17T10:28:13.148Z,976.9
2023-01-17T10:29:13.147Z,976.9
2023-01-17T10:30:13.180Z,977.0
2023-01-17T10:31:13.299Z,977.0
2023-01-17T10:32:13.172Z,977.0
2023-01-17T10:33:13.188Z,976.9
2023-01-17T10:34:13.194Z,976.9
2023-01-17T10:35:15.746Z,977.0
2023-01-17T10:36:13.202Z,977.0
2023-01-17T10:37:13.225Z,977.0
2023-01-17T10:38:13.224Z,977.0
2023-01-17T10:39:13.235Z,976.9
2023-01-17T10:40:13.231Z,977.0
2023-01-17T10:41:13.235Z,976.9
2023-01-17T10:42:13.267Z,977.0
2023-01-17T10:43:13.248Z,977.0
2023-01-17T10:44:13.273Z,977.0
2023-01-17T10:45:13.265Z,977.0
2023-01-17T10:46:13.384Z,977.0
2023-01-17T10:47:13.302Z,976.9
2023-01-17T10:48:13.298Z,976.9
2023-01-17T10:49:13.284Z,976.9
2023-01-17T10:50:13.310Z,977.0
2023-01-17T10:51:13.337Z,977.0
2023-01-17T10:52:13.336Z,977.0
2023-01-17T10:53:13.328Z,976.9
2023-01-17T10:54:13.353Z,977.0
2023-01-17T10:55:13.327Z,976.9
2023-01-17T10:56:13.366Z,976.9
2023-01-17T10:57:13.349Z,977.0
2023-01-17T10:58:13.351Z,977.0
2023-01-17T10:59:13.359Z,976.9
2023-01-17T11:00:13.362Z,976.9
2023-01-17T11:01:13.636Z,977.0
2023-01-17T11:02:13.608Z,977.0
2023-01-17T11:03:13.389Z,977.0
2023-01-17T11:04:13.393Z,977.1
2023-01-17T11:05:13.409Z,977.0
2023-01-17T11:06:13.413Z,977.1
2023-01-17T11:07:13.434Z,977.0
2023-01-17T11:08:13.438Z,977.2
2023-01-17T11:09:13.472Z,977.0
2023-01-17T11:10:13.439Z,977.2
2023-01-17T11:11:13.468Z,977.1
2023-01-17T11:12:13.460Z,977.1
2023-01-17T11:13:13.481Z,977.2
2023-01-17T11:14:13.494Z,977.1
2023-01-17T11:15:13.496Z,977.1
2023-01-17T11:16:13.488Z,977.2
2023-01-17T11:17:13.499Z,977.1
2023-01-17T11:18:13.514Z,977.2
2023-01-17T11:19:13.562Z,977.1
2023-01-17T11:20:13.525Z,977.1
2023-01-17T11:21:13.535Z,977.1
2023-01-17T11:22:13.530Z,977.2
2023-01-17T11:23:13.554Z,977.2
2023-01-17T11:24:13.565Z,977.2
2023-01-17T11:25:13.555Z,977.2
2023-01-17T11:26:13.578Z,977.3
2023-01-17T11:27:13.572Z,977.4
2023-01-17T11:28:13.586Z,977.4
2023-01-17T11:29:13.603Z,977.2
2023-01-17T11:30:13.610Z,977.3
2023-01-17T11:31:13.786Z,977.3
2023-01-17T11:32:13.610Z,977.3
2023-01-17T11:33:13.629Z,977.4
2023-01-17T11:34:13.640Z,977.3
2023-01-17T11:35:13.647Z,977.4
2023-01-17T11:36:13.641Z,977.4
2023-01-17T11:37:13.761Z,977.4
2023-01-17T11:38:13.684Z,977.4
2023-01-17T11:39:13.661Z,977.4
2023-01-17T11:40:13.683Z,977.4
2023-01-17T11:41:13.679Z,977.4
2023-01-17T11:42:13.687Z,977.4
2023-01-17T11:43:13.705Z,977.5
2023-01-17T11:44:13.724Z,977.5
2023-01-17T11:45:13.720Z,977.5
2023-01-17T11:46:13.796Z,977.4
2023-01-17T11:47:13.740Z,977.4
2023-01-17T11:48:13.769Z,977.4
2023-01-17T11:49:13.758Z,977.4
2023-01-17T11:50:13.779Z,977.4
2023-01-17T11:51:13.813Z,977.4
2023-01-17T11:52:13.769Z,977.4
2023-01-17T11:53:13.789Z,977.4
2023-01-17T11:54:13.792Z,977.4
2023-01-17T11:55:13.796Z,977.4
2023-01-17T11:56:13.808Z,977.4
2023-01-17T11:57:13.818Z,977.5
2023-01-17T11:58:13.822Z,977.4
2023-01-17T11:59:13.842Z,977.4
2023-01-17T12:00:13.838Z,977.4
2023-01-17T12:01:14.057Z,977.4
2023-01-17T12:02:13.903Z,977.5
2023-01-17T12:03:13.892Z,977.5
2023-01-17T12:04:13.910Z,977.5
2023-01-17T12:05:13.973Z,977.5
2023-01-17T12:06:13.895Z,977.5
2023-01-17T12:07:13.893Z,977.6
2023-01-17T12:08:13.912Z,977.5
2023-01-17T12:09:13.916Z,977.5
2023-01-17T12:10:13.929Z,977.5
2023-01-17T12:11:13.953Z,977.6
2023-01-17T12:12:13.945Z,977.7
2023-01-17T12:13:13.949Z,977.8
2023-01-17T12:14:13.969Z,977.7
2023-01-17T12:15:13.981Z,977.7
2023-01-17T12:16:14.096Z,977.6
2023-01-17T12:17:13.999Z,977.8
2023-01-17T12:18:14.053Z,977.8
2023-01-17T12:19:14.003Z,977.7
2023-01-17T12:20:14.132Z,977.8
2023-01-17T12:21:14.025Z,977.8
2023-01-17T12:22:14.033Z,977.9
2023-01-17T12:23:14.229Z,977.8
2023-01-17T12:24:14.082Z,977.8
2023-01-17T12:25:14.053Z,977.7
2023-01-17T12:26:14.053Z,977.8
2023-01-17T12:27:14.085Z,977.6
2023-01-17T12:28:14.067Z,977.8
2023-01-17T12:29:14.117Z,977.8
2023-01-17T12:30:14.271Z,977.8
2023-01-17T12:31:14.148Z,977.8
2023-01-17T12:32:14.105Z,977.8
2023-01-17T12:33:14.153Z,977.8
2023-01-17T12:34:14.135Z,977.8
2023-01-17T12:35:14.136Z,977.8
2023-01-17T12:36:14.136Z,977.9
2023-01-17T12:37:14.430Z,977.8
2023-01-17T12:38:32.389Z,977.8
2023-01-17T12:39:14.410Z,977.8
2023-01-17T12:40:14.422Z,977.8
2023-01-17T12:41:14.188Z,977.8
2023-01-17T12:42:14.200Z,977.8
2023-01-17T12:43:14.211Z,977.9
2023-01-17T12:44:14.230Z,977.9
2023-01-17T12:45:14.223Z,977.9
2023-01-17T12:46:14.257Z,977.9
2023-01-17T12:47:14.232Z,977.8
2023-01-17T12:48:14.235Z,978.0
2023-01-17T12:49:14.244Z,977.9
2023-01-17T12:50:14.327Z,977.9
2023-01-17T12:51:14.285Z,977.8
2023-01-17T12:52:14.286Z,977.9
2023-01-17T12:53:14.292Z,978.0
2023-01-17T12:54:14.307Z,977.8
2023-01-17T12:55:14.305Z,977.9
2023-01-17T12:56:14.318Z,977.8
2023-01-17T12:57:14.317Z,977.9
2023-01-17T12:58:14.336Z,977.9
2023-01-17T12:59:14.335Z,978.0
2023-01-17T13:00:14.350Z,977.9
2023-01-17T13:01:14.583Z,977.9
2023-01-17T13:02:14.457Z,977.8
2023-01-17T13:03:14.384Z,977.9
2023-01-17T13:04:14.382Z,978.0
2023-01-17T13:05:14.388Z,978.0
2023-01-17T13:06:14.396Z,978.0
2023-01-17T13:07:14.396Z,978.1
2023-01-17T13:08:14.406Z,978.0
2023-01-17T13:09:14.416Z,978.1